sensor_id;sensor_type;location;lat;lon;timestamp;P1;durP1;ratioP1;P2;durP2;ratioP2
26690;SDS011;14307;51.718;8.938;2023-04-29T00:01:03;56.67;;;30.58;;
26690;SDS011;14307;51.718;8.938;2023-04-29T00:03:31;55.13;;;30.60;;
26690;SDS011;14307;51.718;8.938;2023-04-29T00:05:58;56.95;;;31.75;;
26690;SDS011;14307;51.718;8.938;2023-04-29T00:08:26;47.60;;;28.42;;
26690;SDS011;14307;51.718;8.938;2023-04-29T00:10:53;46.88;;;27.40;;
26690;SDS011;14307;51.718;8.938;2023-04-29T00:13:19;51.83;;;29.98;;
26690;SDS011;14307;51.718;8.938;2023-04-29T00:15:46;51.70;;;29.55;;
26690;SDS011;14307;51.718;8.938;2023-04-29T00:18:13;45.45;;;26.70;;
26690;SDS011;14307;51.718;8.938;2023-04-29T00:20:40;43.75;;;26.65;;
26690;SDS011;14307;51.718;8.938;2023-04-29T00:23:07;44.85;;;28.52;;
26690;SDS011;14307;51.718;8.938;2023-04-29T00:25:34;45.53;;;27.83;;
26690;SDS011;14307;51.718;8.938;2023-04-29T00:28:01;50.30;;;29.88;;
26690;SDS011;14307;51.718;8.938;2023-04-29T00:30:28;48.05;;;28.00;;
26690;SDS011;14307;51.718;8.938;2023-04-29T00:32:56;51.83;;;29.73;;
26690;SDS011;14307;51.718;8.938;2023-04-29T00:35:22;48.97;;;29.08;;
26690;SDS011;14307;51.718;8.938;2023-04-29T00:37:49;50.75;;;30.52;;
26690;SDS011;14307;51.718;8.938;2023-04-29T00:40:16;41.40;;;25.92;;
26690;SDS011;14307;51.718;8.938;2023-04-29T00:42:43;46.78;;;27.00;;
26690;SDS011;14307;51.718;8.938;2023-04-29T00:45:10;45.05;;;28.23;;
26690;SDS011;14307;51.718;8.938;2023-04-29T00:47:37;45.45;;;28.58;;
26690;SDS011;14307;51.718;8.938;2023-04-29T00:50:05;48.33;;;28.92;;
26690;SDS011;14307;51.718;8.938;2023-04-29T00:52:33;51.88;;;30.90;;
26690;SDS011;14307;51.718;8.938;2023-04-29T00:55:00;54.85;;;29.80;;
26690;SDS011;14307;51.718;8.938;2023-04-29T00:57:28;57.67;;;31.52;;
26690;SDS011;14307;51.718;8.938;2023-04-29T00:59:58;58.63;;;33.20;;
26690;SDS011;14307;51.718;8.938;2023-04-29T01:02:25;65.63;;;34.83;;
26690;SDS011;14307;51.718;8.938;2023-04-29T01:04:53;58.75;;;34.03;;
26690;SDS011;14307;51.718;8.938;2023-04-29T01:10:08;67.25;;;35.47;;
26690;SDS011;14307;51.718;8.938;2023-04-29T01:15:11;69.10;;;37.75;;
26690;SDS011;14307;51.718;8.938;2023-04-29T01:17:58;68.45;;;35.67;;
26690;SDS011;14307;51.718;8.938;2023-04-29T01:20:30;61.88;;;33.58;;
26690;SDS011;14307;51.718;8.938;2023-04-29T01:22:58;68.82;;;36.00;;
26690;SDS011;14307;51.718;8.938;2023-04-29T01:25:25;69.75;;;37.33;;
26690;SDS011;14307;51.718;8.938;2023-04-29T01:28:42;80.30;;;39.58;;
26690;SDS011;14307;51.718;8.938;2023-04-29T01:34:14;80.05;;;39.03;;
26690;SDS011;14307;51.718;8.938;2023-04-29T01:36:59;78.78;;;38.15;;
26690;SDS011;14307;51.718;8.938;2023-04-29T01:39:45;85.38;;;40.53;;
26690;SDS011;14307;51.718;8.938;2023-04-29T01:42:25;91.18;;;41.50;;
26690;SDS011;14307;51.718;8.938;2023-04-29T01:45:07;93.22;;;43.85;;
26690;SDS011;14307;51.718;8.938;2023-04-29T01:47:36;88.78;;;41.08;;
26690;SDS011;14307;51.718;8.938;2023-04-29T01:50:05;91.95;;;40.92;;
26690;SDS011;14307;51.718;8.938;2023-04-29T01:52:32;99.70;;;42.13;;
26690;SDS011;14307;51.718;8.938;2023-04-29T01:54:58;96.97;;;42.47;;
26690;SDS011;14307;51.718;8.938;2023-04-29T01:57:34;100.65;;;43.72;;
26690;SDS011;14307;51.718;8.938;2023-04-29T02:00:21;94.75;;;41.42;;
26690;SDS011;14307;51.718;8.938;2023-04-29T02:02:50;93.95;;;39.88;;
26690;SDS011;14307;51.718;8.938;2023-04-29T02:05:28;86.68;;;39.88;;
26690;SDS011;14307;51.718;8.938;2023-04-29T02:08:00;97.60;;;40.90;;
26690;SDS011;14307;51.718;8.938;2023-04-29T02:10:28;112.93;;;43.80;;
26690;SDS011;14307;51.718;8.938;2023-04-29T02:13:09;112.32;;;46.78;;
26690;SDS011;14307;51.718;8.938;2023-04-29T02:15:39;116.75;;;47.05;;
26690;SDS011;14307;51.718;8.938;2023-04-29T02:18:06;138.90;;;51.50;;
26690;SDS011;14307;51.718;8.938;2023-04-29T02:20:33;137.07;;;55.70;;
26690;SDS011;14307;51.718;8.938;2023-04-29T02:23:03;138.93;;;53.88;;
26690;SDS011;14307;51.718;8.938;2023-04-29T02:25:30;134.65;;;53.72;;
26690;SDS011;14307;51.718;8.938;2023-04-29T02:27:57;132.70;;;53.92;;
26690;SDS011;14307;51.718;8.938;2023-04-29T02:30:24;147.00;;;55.33;;
26690;SDS011;14307;51.718;8.938;2023-04-29T02:32:51;157.52;;;57.13;;
26690;SDS011;14307;51.718;8.938;2023-04-29T02:35:18;128.40;;;52.70;;
26690;SDS011;14307;51.718;8.938;2023-04-29T02:37:45;148.13;;;55.95;;
26690;SDS011;14307;51.718;8.938;2023-04-29T02:40:12;150.60;;;57.22;;
26690;SDS011;14307;51.718;8.938;2023-04-29T02:42:39;156.38;;;56.13;;
26690;SDS011;14307;51.718;8.938;2023-04-29T02:45:06;129.60;;;52.83;;
26690;SDS011;14307;51.718;8.938;2023-04-29T02:47:33;112.68;;;44.92;;
26690;SDS011;14307;51.718;8.938;2023-04-29T02:49:59;109.20;;;47.15;;
26690;SDS011;14307;51.718;8.938;2023-04-29T02:52:27;109.10;;;44.80;;
26690;SDS011;14307;51.718;8.938;2023-04-29T02:54:54;114.80;;;46.20;;
26690;SDS011;14307;51.718;8.938;2023-04-29T02:57:20;129.63;;;48.60;;
26690;SDS011;14307;51.718;8.938;2023-04-29T02:59:47;145.98;;;53.55;;
26690;SDS011;14307;51.718;8.938;2023-04-29T03:02:14;153.93;;;59.92;;
26690;SDS011;14307;51.718;8.938;2023-04-29T03:04:43;168.15;;;59.47;;
26690;SDS011;14307;51.718;8.938;2023-04-29T03:07:10;153.60;;;56.72;;
26690;SDS011;14307;51.718;8.938;2023-04-29T03:09:37;165.07;;;58.60;;
26690;SDS011;14307;51.718;8.938;2023-04-29T03:12:03;159.32;;;59.72;;
26690;SDS011;14307;51.718;8.938;2023-04-29T03:14:30;185.80;;;65.47;;
26690;SDS011;14307;51.718;8.938;2023-04-29T03:16:57;160.65;;;59.97;;
26690;SDS011;14307;51.718;8.938;2023-04-29T03:19:24;165.75;;;61.25;;
26690;SDS011;14307;51.718;8.938;2023-04-29T03:21:50;179.90;;;65.00;;
26690;SDS011;14307;51.718;8.938;2023-04-29T03:24:20;202.70;;;68.95;;
26690;SDS011;14307;51.718;8.938;2023-04-29T03:26:47;178.57;;;63.22;;
26690;SDS011;14307;51.718;8.938;2023-04-29T03:29:13;160.57;;;59.95;;
26690;SDS011;14307;51.718;8.938;2023-04-29T03:31:40;156.35;;;60.40;;
26690;SDS011;14307;51.718;8.938;2023-04-29T03:34:08;148.93;;;56.80;;
26690;SDS011;14307;51.718;8.938;2023-04-29T03:36:38;143.63;;;52.83;;
26690;SDS011;14307;51.718;8.938;2023-04-29T03:39:06;156.35;;;54.05;;
26690;SDS011;14307;51.718;8.938;2023-04-29T03:41:33;151.85;;;56.17;;
26690;SDS011;14307;51.718;8.938;2023-04-29T03:44:00;165.85;;;54.67;;
26690;SDS011;14307;51.718;8.938;2023-04-29T03:46:28;155.60;;;54.72;;
26690;SDS011;14307;51.718;8.938;2023-04-29T03:48:54;158.75;;;53.83;;
26690;SDS011;14307;51.718;8.938;2023-04-29T03:51:24;144.52;;;53.22;;
26690;SDS011;14307;51.718;8.938;2023-04-29T03:53:59;166.73;;;53.70;;
26690;SDS011;14307;51.718;8.938;2023-04-29T03:56:26;157.68;;;51.22;;
26690;SDS011;14307;51.718;8.938;2023-04-29T03:58:53;173.10;;;54.35;;
26690;SDS011;14307;51.718;8.938;2023-04-29T04:01:22;182.85;;;57.40;;
26690;SDS011;14307;51.718;8.938;2023-04-29T04:03:50;183.20;;;56.72;;
26690;SDS011;14307;51.718;8.938;2023-04-29T04:06:17;176.10;;;57.30;;
26690;SDS011;14307;51.718;8.938;2023-04-29T04:08:44;167.70;;;55.85;;
26690;SDS011;14307;51.718;8.938;2023-04-29T04:11:18;199.45;;;62.05;;
26690;SDS011;14307;51.718;8.938;2023-04-29T04:13:50;196.13;;;58.38;;
26690;SDS011;14307;51.718;8.938;2023-04-29T04:16:17;190.27;;;57.63;;
26690;SDS011;14307;51.718;8.938;2023-04-29T04:18:44;194.75;;;61.60;;
26690;SDS011;14307;51.718;8.938;2023-04-29T04:21:11;188.93;;;59.88;;
26690;SDS011;14307;51.718;8.938;2023-04-29T04:23:41;158.40;;;54.35;;
26690;SDS011;14307;51.718;8.938;2023-04-29T04:26:12;174.35;;;55.50;;
26690;SDS011;14307;51.718;8.938;2023-04-29T04:28:58;163.38;;;56.40;;
26690;SDS011;14307;51.718;8.938;2023-04-29T04:31:33;172.75;;;57.70;;
26690;SDS011;14307;51.718;8.938;2023-04-29T04:34:00;182.15;;;62.35;;
26690;SDS011;14307;51.718;8.938;2023-04-29T04:36:29;171.57;;;57.45;;
26690;SDS011;14307;51.718;8.938;2023-04-29T04:38:56;174.00;;;56.75;;
26690;SDS011;14307;51.718;8.938;2023-04-29T04:41:22;179.82;;;54.33;;
26690;SDS011;14307;51.718;8.938;2023-04-29T04:43:51;155.40;;;51.15;;
26690;SDS011;14307;51.718;8.938;2023-04-29T04:46:27;183.07;;;53.00;;
26690;SDS011;14307;51.718;8.938;2023-04-29T04:49:04;230.10;;;60.80;;
26690;SDS011;14307;51.718;8.938;2023-04-29T04:51:33;285.70;;;68.35;;
26690;SDS011;14307;51.718;8.938;2023-04-29T04:53:59;174.82;;;53.05;;
26690;SDS011;14307;51.718;8.938;2023-04-29T04:56:29;167.30;;;50.90;;
26690;SDS011;14307;51.718;8.938;2023-04-29T04:58:56;168.88;;;52.17;;
26690;SDS011;14307;51.718;8.938;2023-04-29T05:01:23;224.40;;;58.33;;
26690;SDS011;14307;51.718;8.938;2023-04-29T05:03:49;239.38;;;58.13;;
26690;SDS011;14307;51.718;8.938;2023-04-29T05:06:16;141.13;;;46.47;;
26690;SDS011;14307;51.718;8.938;2023-04-29T05:08:45;117.25;;;41.80;;
26690;SDS011;14307;51.718;8.938;2023-04-29T05:11:16;122.38;;;42.22;;
26690;SDS011;14307;51.718;8.938;2023-04-29T05:13:47;114.13;;;40.28;;
26690;SDS011;14307;51.718;8.938;2023-04-29T05:16:17;98.47;;;37.35;;
26690;SDS011;14307;51.718;8.938;2023-04-29T05:18:46;92.35;;;37.25;;
26690;SDS011;14307;51.718;8.938;2023-04-29T05:21:14;90.68;;;35.35;;
26690;SDS011;14307;51.718;8.938;2023-04-29T05:23:43;94.53;;;36.05;;
26690;SDS011;14307;51.718;8.938;2023-04-29T05:26:10;89.40;;;37.78;;
26690;SDS011;14307;51.718;8.938;2023-04-29T05:28:37;96.10;;;37.13;;
26690;SDS011;14307;51.718;8.938;2023-04-29T05:31:06;96.88;;;36.90;;
26690;SDS011;14307;51.718;8.938;2023-04-29T05:33:32;89.10;;;37.38;;
26690;SDS011;14307;51.718;8.938;2023-04-29T05:35:59;103.65;;;36.05;;
26690;SDS011;14307;51.718;8.938;2023-04-29T05:38:26;103.15;;;40.63;;
26690;SDS011;14307;51.718;8.938;2023-04-29T05:41:02;98.72;;;39.55;;
26690;SDS011;14307;51.718;8.938;2023-04-29T05:43:47;86.90;;;35.13;;
26690;SDS011;14307;51.718;8.938;2023-04-29T05:46:15;76.30;;;32.63;;
26690;SDS011;14307;51.718;8.938;2023-04-29T05:48:42;74.55;;;31.67;;
26690;SDS011;14307;51.718;8.938;2023-04-29T05:51:10;89.13;;;36.63;;
26690;SDS011;14307;51.718;8.938;2023-04-29T05:53:37;92.13;;;37.97;;
26690;SDS011;14307;51.718;8.938;2023-04-29T05:56:06;116.78;;;44.20;;
26690;SDS011;14307;51.718;8.938;2023-04-29T05:58:34;144.90;;;48.90;;
26690;SDS011;14307;51.718;8.938;2023-04-29T06:01:01;125.65;;;48.22;;
26690;SDS011;14307;51.718;8.938;2023-04-29T06:03:29;124.55;;;47.42;;
26690;SDS011;14307;51.718;8.938;2023-04-29T06:06:15;155.45;;;55.03;;
26690;SDS011;14307;51.718;8.938;2023-04-29T06:09:05;178.55;;;58.92;;
26690;SDS011;14307;51.718;8.938;2023-04-29T06:11:43;210.82;;;60.67;;
26690;SDS011;14307;51.718;8.938;2023-04-29T06:14:10;214.85;;;61.92;;
26690;SDS011;14307;51.718;8.938;2023-04-29T06:16:36;321.38;;;69.45;;
26690;SDS011;14307;51.718;8.938;2023-04-29T06:19:07;229.85;;;64.22;;
26690;SDS011;14307;51.718;8.938;2023-04-29T06:21:34;170.48;;;57.65;;
26690;SDS011;14307;51.718;8.938;2023-04-29T06:24:01;151.43;;;57.58;;
26690;SDS011;14307;51.718;8.938;2023-04-29T06:26:28;111.10;;;50.45;;
26690;SDS011;14307;51.718;8.938;2023-04-29T06:28:55;111.20;;;52.08;;
26690;SDS011;14307;51.718;8.938;2023-04-29T06:31:22;113.45;;;50.13;;
26690;SDS011;14307;51.718;8.938;2023-04-29T06:33:51;106.60;;;49.13;;
26690;SDS011;14307;51.718;8.938;2023-04-29T06:36:18;103.57;;;49.47;;
26690;SDS011;14307;51.718;8.938;2023-04-29T06:39:03;113.32;;;51.33;;
26690;SDS011;14307;51.718;8.938;2023-04-29T06:42:06;105.50;;;49.03;;
26690;SDS011;14307;51.718;8.938;2023-04-29T06:44:43;95.25;;;47.75;;
26690;SDS011;14307;51.718;8.938;2023-04-29T06:47:19;97.22;;;46.83;;
26690;SDS011;14307;51.718;8.938;2023-04-29T06:49:53;94.40;;;46.88;;
26690;SDS011;14307;51.718;8.938;2023-04-29T06:52:20;87.70;;;44.47;;
26690;SDS011;14307;51.718;8.938;2023-04-29T06:54:47;91.75;;;48.40;;
26690;SDS011;14307;51.718;8.938;2023-04-29T06:57:16;89.75;;;44.45;;
26690;SDS011;14307;51.718;8.938;2023-04-29T06:59:44;81.85;;;43.15;;
26690;SDS011;14307;51.718;8.938;2023-04-29T07:02:11;76.25;;;41.97;;
26690;SDS011;14307;51.718;8.938;2023-04-29T07:04:38;74.38;;;39.47;;
26690;SDS011;14307;51.718;8.938;2023-04-29T07:07:05;77.90;;;40.83;;
26690;SDS011;14307;51.718;8.938;2023-04-29T07:09:33;81.90;;;43.30;;
26690;SDS011;14307;51.718;8.938;2023-04-29T07:11:59;78.97;;;40.05;;
26690;SDS011;14307;51.718;8.938;2023-04-29T07:14:27;77.40;;;39.55;;
26690;SDS011;14307;51.718;8.938;2023-04-29T07:16:54;81.25;;;41.15;;
26690;SDS011;14307;51.718;8.938;2023-04-29T07:19:21;80.90;;;41.10;;
26690;SDS011;14307;51.718;8.938;2023-04-29T07:21:48;76.90;;;40.28;;
26690;SDS011;14307;51.718;8.938;2023-04-29T07:24:15;79.68;;;42.08;;
26690;SDS011;14307;51.718;8.938;2023-04-29T07:26:45;82.80;;;42.17;;
26690;SDS011;14307;51.718;8.938;2023-04-29T07:29:14;76.95;;;42.78;;
26690;SDS011;14307;51.718;8.938;2023-04-29T07:31:40;81.50;;;44.25;;
26690;SDS011;14307;51.718;8.938;2023-04-29T07:34:07;86.75;;;43.13;;
26690;SDS011;14307;51.718;8.938;2023-04-29T07:36:34;80.40;;;41.72;;
26690;SDS011;14307;51.718;8.938;2023-04-29T07:39:01;79.22;;;42.03;;
26690;SDS011;14307;51.718;8.938;2023-04-29T07:41:28;75.95;;;40.08;;
26690;SDS011;14307;51.718;8.938;2023-04-29T07:43:54;84.10;;;42.75;;
26690;SDS011;14307;51.718;8.938;2023-04-29T07:46:21;87.55;;;44.85;;
26690;SDS011;14307;51.718;8.938;2023-04-29T07:48:49;81.05;;;44.47;;
26690;SDS011;14307;51.718;8.938;2023-04-29T07:51:15;81.80;;;43.20;;
26690;SDS011;14307;51.718;8.938;2023-04-29T07:53:42;75.88;;;41.60;;
26690;SDS011;14307;51.718;8.938;2023-04-29T07:56:09;86.75;;;45.35;;
26690;SDS011;14307;51.718;8.938;2023-04-29T07:58:35;79.05;;;42.30;;
26690;SDS011;14307;51.718;8.938;2023-04-29T08:01:06;91.40;;;44.83;;
26690;SDS011;14307;51.718;8.938;2023-04-29T08:03:37;88.72;;;47.30;;
26690;SDS011;14307;51.718;8.938;2023-04-29T08:06:07;87.22;;;44.97;;
26690;SDS011;14307;51.718;8.938;2023-04-29T08:08:34;87.13;;;46.50;;
26690;SDS011;14307;51.718;8.938;2023-04-29T08:11:01;82.68;;;44.53;;
26690;SDS011;14307;51.718;8.938;2023-04-29T08:13:27;82.90;;;44.40;;
26690;SDS011;14307;51.718;8.938;2023-04-29T08:15:54;79.97;;;44.38;;
26690;SDS011;14307;51.718;8.938;2023-04-29T08:18:21;91.68;;;47.55;;
26690;SDS011;14307;51.718;8.938;2023-04-29T08:20:48;91.72;;;47.88;;
26690;SDS011;14307;51.718;8.938;2023-04-29T08:23:14;83.28;;;48.53;;
26690;SDS011;14307;51.718;8.938;2023-04-29T08:25:41;85.80;;;50.60;;
26690;SDS011;14307;51.718;8.938;2023-04-29T08:28:09;89.15;;;47.78;;
26690;SDS011;14307;51.718;8.938;2023-04-29T08:30:37;81.85;;;46.45;;
26690;SDS011;14307;51.718;8.938;2023-04-29T08:33:05;84.15;;;48.65;;
26690;SDS011;14307;51.718;8.938;2023-04-29T08:35:33;81.40;;;45.00;;
26690;SDS011;14307;51.718;8.938;2023-04-29T08:38:07;74.43;;;45.50;;
26690;SDS011;14307;51.718;8.938;2023-04-29T08:40:44;76.30;;;45.00;;
26690;SDS011;14307;51.718;8.938;2023-04-29T08:43:14;80.15;;;47.30;;
26690;SDS011;14307;51.718;8.938;2023-04-29T08:45:42;72.25;;;43.70;;
26690;SDS011;14307;51.718;8.938;2023-04-29T08:48:09;59.90;;;42.08;;
26690;SDS011;14307;51.718;8.938;2023-04-29T08:50:37;65.95;;;43.60;;
26690;SDS011;14307;51.718;8.938;2023-04-29T08:53:09;70.20;;;45.40;;
26690;SDS011;14307;51.718;8.938;2023-04-29T08:55:43;66.40;;;45.38;;
26690;SDS011;14307;51.718;8.938;2023-04-29T08:58:12;72.32;;;48.03;;
26690;SDS011;14307;51.718;8.938;2023-04-29T09:00:40;69.20;;;46.30;;
26690;SDS011;14307;51.718;8.938;2023-04-29T09:03:16;71.53;;;45.13;;
26690;SDS011;14307;51.718;8.938;2023-04-29T09:05:52;69.35;;;43.20;;
26690;SDS011;14307;51.718;8.938;2023-04-29T09:08:20;64.65;;;43.13;;
26690;SDS011;14307;51.718;8.938;2023-04-29T09:10:52;64.10;;;42.72;;
26690;SDS011;14307;51.718;8.938;2023-04-29T09:13:37;60.20;;;42.25;;
26690;SDS011;14307;51.718;8.938;2023-04-29T09:16:04;51.03;;;36.55;;
26690;SDS011;14307;51.718;8.938;2023-04-29T09:18:43;51.90;;;38.55;;
26690;SDS011;14307;51.718;8.938;2023-04-29T09:23:46;46.30;;;36.65;;
26690;SDS011;14307;51.718;8.938;2023-04-29T09:26:14;47.20;;;39.22;;
26690;SDS011;14307;51.718;8.938;2023-04-29T09:28:41;42.80;;;32.97;;
26690;SDS011;14307;51.718;8.938;2023-04-29T09:31:12;45.72;;;36.85;;
26690;SDS011;14307;51.718;8.938;2023-04-29T09:33:53;45.28;;;37.30;;
26690;SDS011;14307;51.718;8.938;2023-04-29T09:39:14;42.80;;;36.55;;
26690;SDS011;14307;51.718;8.938;2023-04-29T09:49:32;42.85;;;37.90;;
26690;SDS011;14307;51.718;8.938;2023-04-29T09:52:04;44.92;;;38.55;;
26690;SDS011;14307;51.718;8.938;2023-04-29T09:54:33;44.05;;;38.35;;
26690;SDS011;14307;51.718;8.938;2023-04-29T09:57:04;42.60;;;37.90;;
26690;SDS011;14307;51.718;8.938;2023-04-29T09:59:36;50.10;;;39.75;;
26690;SDS011;14307;51.718;8.938;2023-04-29T10:02:14;46.55;;;39.55;;
26690;SDS011;14307;51.718;8.938;2023-04-29T10:04:45;45.50;;;40.63;;
26690;SDS011;14307;51.718;8.938;2023-04-29T10:07:14;50.58;;;42.60;;
26690;SDS011;14307;51.718;8.938;2023-04-29T10:09:42;47.88;;;42.45;;
26690;SDS011;14307;51.718;8.938;2023-04-29T10:12:10;43.60;;;37.65;;
26690;SDS011;14307;51.718;8.938;2023-04-29T10:14:44;45.53;;;40.78;;
26690;SDS011;14307;51.718;8.938;2023-04-29T10:17:23;44.97;;;40.25;;
26690;SDS011;14307;51.718;8.938;2023-04-29T10:22:42;45.97;;;39.20;;
26690;SDS011;14307;51.718;8.938;2023-04-29T10:25:12;43.97;;;39.25;;
26690;SDS011;14307;51.718;8.938;2023-04-29T10:27:41;42.33;;;37.70;;
26690;SDS011;14307;51.718;8.938;2023-04-29T10:30:12;43.60;;;38.97;;
26690;SDS011;14307;51.718;8.938;2023-04-29T10:32:44;40.38;;;36.28;;
26690;SDS011;14307;51.718;8.938;2023-04-29T10:35:18;42.53;;;38.30;;
26690;SDS011;14307;51.718;8.938;2023-04-29T10:37:47;42.75;;;38.58;;
26690;SDS011;14307;51.718;8.938;2023-04-29T10:40:19;41.20;;;37.22;;
26690;SDS011;14307;51.718;8.938;2023-04-29T10:42:50;43.35;;;39.15;;
26690;SDS011;14307;51.718;8.938;2023-04-29T10:45:25;42.58;;;38.70;;
26690;SDS011;14307;51.718;8.938;2023-04-29T10:50:33;43.58;;;39.53;;
26690;SDS011;14307;51.718;8.938;2023-04-29T10:55:32;44.25;;;39.70;;
26690;SDS011;14307;51.718;8.938;2023-04-29T10:58:03;45.85;;;41.33;;
26690;SDS011;14307;51.718;8.938;2023-04-29T11:00:31;45.78;;;41.30;;
26690;SDS011;14307;51.718;8.938;2023-04-29T11:03:00;42.67;;;38.75;;
26690;SDS011;14307;51.718;8.938;2023-04-29T11:05:31;41.92;;;38.15;;
26690;SDS011;14307;51.718;8.938;2023-04-29T11:08:11;42.17;;;38.38;;
26690;SDS011;14307;51.718;8.938;2023-04-29T11:10:52;41.47;;;37.85;;
26690;SDS011;14307;51.718;8.938;2023-04-29T11:13:29;41.78;;;38.45;;
26690;SDS011;14307;51.718;8.938;2023-04-29T11:16:06;44.22;;;40.13;;
26690;SDS011;14307;51.718;8.938;2023-04-29T11:18:35;43.25;;;39.45;;
26690;SDS011;14307;51.718;8.938;2023-04-29T11:21:22;41.15;;;37.60;;
26690;SDS011;14307;51.718;8.938;2023-04-29T11:23:50;41.63;;;38.22;;
26690;SDS011;14307;51.718;8.938;2023-04-29T11:26:18;42.92;;;39.30;;
26690;SDS011;14307;51.718;8.938;2023-04-29T11:28:45;43.90;;;40.47;;
26690;SDS011;14307;51.718;8.938;2023-04-29T11:31:12;45.85;;;41.88;;
26690;SDS011;14307;51.718;8.938;2023-04-29T11:33:39;47.60;;;43.90;;
26690;SDS011;14307;51.718;8.938;2023-04-29T11:36:06;45.58;;;42.08;;
26690;SDS011;14307;51.718;8.938;2023-04-29T11:38:34;45.72;;;41.92;;
26690;SDS011;14307;51.718;8.938;2023-04-29T11:41:05;46.05;;;42.40;;
26690;SDS011;14307;51.718;8.938;2023-04-29T11:43:32;50.30;;;46.22;;
26690;SDS011;14307;51.718;8.938;2023-04-29T11:45:59;51.25;;;47.20;;
26690;SDS011;14307;51.718;8.938;2023-04-29T11:48:25;50.53;;;46.50;;
26690;SDS011;14307;51.718;8.938;2023-04-29T11:50:56;46.22;;;42.58;;
26690;SDS011;14307;51.718;8.938;2023-04-29T11:53:25;44.70;;;40.85;;
26690;SDS011;14307;51.718;8.938;2023-04-29T11:55:53;43.40;;;40.03;;
26690;SDS011;14307;51.718;8.938;2023-04-29T11:58:20;44.45;;;40.88;;
26690;SDS011;14307;51.718;8.938;2023-04-29T12:00:47;43.35;;;39.63;;
26690;SDS011;14307;51.718;8.938;2023-04-29T12:03:19;45.95;;;41.85;;
26690;SDS011;14307;51.718;8.938;2023-04-29T12:05:50;42.22;;;38.63;;
26690;SDS011;14307;51.718;8.938;2023-04-29T12:08:27;41.97;;;38.47;;
26690;SDS011;14307;51.718;8.938;2023-04-29T12:10:56;43.38;;;39.47;;
26690;SDS011;14307;51.718;8.938;2023-04-29T12:13:33;49.53;;;45.53;;
26690;SDS011;14307;51.718;8.938;2023-04-29T12:16:03;46.60;;;42.80;;
26690;SDS011;14307;51.718;8.938;2023-04-29T12:18:31;45.78;;;41.80;;
26690;SDS011;14307;51.718;8.938;2023-04-29T12:20:58;44.00;;;40.58;;
26690;SDS011;14307;51.718;8.938;2023-04-29T12:23:24;44.85;;;41.20;;
26690;SDS011;14307;51.718;8.938;2023-04-29T12:25:55;46.65;;;42.60;;
26690;SDS011;14307;51.718;8.938;2023-04-29T12:28:24;44.10;;;40.47;;
26690;SDS011;14307;51.718;8.938;2023-04-29T12:30:52;44.03;;;40.28;;
26690;SDS011;14307;51.718;8.938;2023-04-29T12:33:20;44.53;;;40.63;;
26690;SDS011;14307;51.718;8.938;2023-04-29T12:35:49;43.90;;;40.40;;
26690;SDS011;14307;51.718;8.938;2023-04-29T12:38:20;44.47;;;40.72;;
26690;SDS011;14307;51.718;8.938;2023-04-29T12:40:54;44.25;;;40.55;;
26690;SDS011;14307;51.718;8.938;2023-04-29T12:43:25;45.95;;;42.05;;
26690;SDS011;14307;51.718;8.938;2023-04-29T12:48:34;45.75;;;41.65;;
26690;SDS011;14307;51.718;8.938;2023-04-29T12:51:10;44.75;;;41.00;;
26690;SDS011;14307;51.718;8.938;2023-04-29T12:53:37;45.17;;;41.58;;
26690;SDS011;14307;51.718;8.938;2023-04-29T12:56:04;44.72;;;41.15;;
26690;SDS011;14307;51.718;8.938;2023-04-29T12:58:31;44.55;;;40.67;;
26690;SDS011;14307;51.718;8.938;2023-04-29T13:01:01;44.78;;;41.05;;
26690;SDS011;14307;51.718;8.938;2023-04-29T13:03:28;43.10;;;39.45;;
26690;SDS011;14307;51.718;8.938;2023-04-29T13:05:55;42.95;;;39.35;;
26690;SDS011;14307;51.718;8.938;2023-04-29T13:08:22;45.67;;;41.92;;
26690;SDS011;14307;51.718;8.938;2023-04-29T13:10:49;46.80;;;42.90;;
26690;SDS011;14307;51.718;8.938;2023-04-29T13:13:16;44.10;;;40.58;;
26690;SDS011;14307;51.718;8.938;2023-04-29T13:15:43;43.28;;;39.70;;
26690;SDS011;14307;51.718;8.938;2023-04-29T13:18:09;41.65;;;38.25;;
26690;SDS011;14307;51.718;8.938;2023-04-29T13:20:36;43.70;;;40.13;;
26690;SDS011;14307;51.718;8.938;2023-04-29T13:23:07;44.92;;;40.55;;
26690;SDS011;14307;51.718;8.938;2023-04-29T13:25:34;43.50;;;39.85;;
26690;SDS011;14307;51.718;8.938;2023-04-29T13:28:01;45.15;;;41.20;;
26690;SDS011;14307;51.718;8.938;2023-04-29T13:30:28;46.90;;;42.67;;
26690;SDS011;14307;51.718;8.938;2023-04-29T13:32:54;48.47;;;44.30;;
26690;SDS011;14307;51.718;8.938;2023-04-29T13:35:33;49.78;;;45.65;;
26690;SDS011;14307;51.718;8.938;2023-04-29T13:38:01;49.33;;;44.88;;
26690;SDS011;14307;51.718;8.938;2023-04-29T13:40:28;50.60;;;46.28;;
26690;SDS011;14307;51.718;8.938;2023-04-29T13:42:54;50.75;;;46.53;;
26690;SDS011;14307;51.718;8.938;2023-04-29T13:45:32;51.17;;;46.78;;
26690;SDS011;14307;51.718;8.938;2023-04-29T13:48:05;51.63;;;47.25;;
26690;SDS011;14307;51.718;8.938;2023-04-29T13:50:53;51.17;;;46.67;;
26690;SDS011;14307;51.718;8.938;2023-04-29T13:53:40;48.72;;;44.42;;
26690;SDS011;14307;51.718;8.938;2023-04-29T13:56:17;48.90;;;44.58;;
26690;SDS011;14307;51.718;8.938;2023-04-29T13:58:47;48.70;;;44.60;;
26690;SDS011;14307;51.718;8.938;2023-04-29T14:01:18;48.85;;;44.35;;
26690;SDS011;14307;51.718;8.938;2023-04-29T14:04:05;49.53;;;45.15;;
26690;SDS011;14307;51.718;8.938;2023-04-29T14:06:32;48.22;;;43.70;;
26690;SDS011;14307;51.718;8.938;2023-04-29T14:08:59;46.13;;;41.92;;
26690;SDS011;14307;51.718;8.938;2023-04-29T14:11:29;45.95;;;41.63;;
26690;SDS011;14307;51.718;8.938;2023-04-29T14:13:56;44.80;;;40.92;;
26690;SDS011;14307;51.718;8.938;2023-04-29T14:16:23;45.88;;;41.42;;
26690;SDS011;14307;51.718;8.938;2023-04-29T14:18:49;44.45;;;40.65;;
26690;SDS011;14307;51.718;8.938;2023-04-29T14:21:16;46.60;;;42.30;;
26690;SDS011;14307;51.718;8.938;2023-04-29T14:23:43;45.58;;;41.42;;
26690;SDS011;14307;51.718;8.938;2023-04-29T14:26:10;47.17;;;43.13;;
26690;SDS011;14307;51.718;8.938;2023-04-29T14:28:53;47.83;;;43.78;;
26690;SDS011;14307;51.718;8.938;2023-04-29T14:31:28;49.42;;;45.45;;
26690;SDS011;14307;51.718;8.938;2023-04-29T14:33:55;47.67;;;43.65;;
26690;SDS011;14307;51.718;8.938;2023-04-29T14:36:23;46.58;;;42.65;;
26690;SDS011;14307;51.718;8.938;2023-04-29T14:38:50;47.17;;;43.38;;
26690;SDS011;14307;51.718;8.938;2023-04-29T14:41:17;45.22;;;41.38;;
26690;SDS011;14307;51.718;8.938;2023-04-29T14:43:44;46.78;;;42.42;;
26690;SDS011;14307;51.718;8.938;2023-04-29T14:46:11;46.95;;;42.78;;
26690;SDS011;14307;51.718;8.938;2023-04-29T14:48:37;46.20;;;42.50;;
26690;SDS011;14307;51.718;8.938;2023-04-29T14:51:04;48.30;;;43.75;;
26690;SDS011;14307;51.718;8.938;2023-04-29T14:53:31;43.03;;;39.42;;
26690;SDS011;14307;51.718;8.938;2023-04-29T14:55:58;51.28;;;47.08;;
26690;SDS011;14307;51.718;8.938;2023-04-29T14:58:26;48.63;;;44.10;;
26690;SDS011;14307;51.718;8.938;2023-04-29T15:00:53;43.15;;;39.35;;
26690;SDS011;14307;51.718;8.938;2023-04-29T15:03:20;43.80;;;39.90;;
26690;SDS011;14307;51.718;8.938;2023-04-29T15:05:49;45.20;;;41.22;;